createdAt,value
2018-03-17T00:00:03.679Z,8.50
2018-03-17T00:02:32.792Z,6.40
2018-03-17T00:05:01.964Z,3.93
2018-03-17T00:07:31.191Z,7.17
2018-03-17T00:10:00.328Z,8.53
2018-03-17T00:12:29.612Z,4.97
2018-03-17T00:15:01.091Z,5.37
2018-03-17T00:17:30.218Z,6.27
2018-03-17T00:19:59.296Z,5.73
2018-03-17T00:22:28.338Z,9.60
2018-03-17T00:24:57.790Z,7.47
2018-03-17T00:27:26.742Z,5.80
2018-03-17T00:29:55.742Z,7.10
2018-03-17T00:32:24.871Z,8.80
2018-03-17T00:34:53.880Z,8.70
2018-03-17T00:37:22.916Z,7.30
2018-03-17T00:39:52.091Z,8.57
2018-03-17T00:42:21.287Z,6.60
2018-03-17T00:44:50.341Z,5.67
2018-03-17T00:47:19.335Z,9.88
2018-03-17T00:49:48.356Z,5.78
2018-03-17T00:52:17.403Z,7.90
2018-03-17T00:54:46.352Z,6.87
2018-03-17T00:57:15.374Z,6.50
2018-03-17T00:59:44.439Z,9.47
2018-03-17T01:02:13.831Z,6.73
2018-03-17T01:04:42.966Z,5.15
2018-03-17T01:07:12.112Z,7.05
2018-03-17T01:09:41.221Z,3.83
2018-03-17T01:12:10.313Z,5.53
2018-03-17T01:14:39.396Z,9.38
2018-03-17T01:17:08.424Z,6.95
2018-03-17T01:19:39.039Z,6.22
2018-03-17T01:22:08.229Z,6.30
2018-03-17T01:24:37.229Z,9.63
2018-03-17T01:27:06.288Z,8.67
2018-03-17T01:29:36.077Z,4.90
2018-03-17T01:32:05.113Z,5.25
2018-03-17T01:34:34.113Z,9.23
2018-03-17T01:37:03.061Z,5.60
2018-03-17T01:39:32.167Z,4.20
2018-03-17T01:42:02.014Z,6.00
2018-03-17T01:44:30.965Z,4.68
2018-03-17T01:46:59.881Z,5.87
2018-03-17T01:49:28.950Z,7.25
2018-03-17T01:51:58.304Z,7.05
2018-03-17T01:54:33.061Z,4.90
2018-03-17T01:57:02.140Z,4.30
2018-03-17T01:59:31.310Z,4.60
2018-03-17T02:02:00.382Z,9.15
2018-03-17T02:04:29.412Z,5.80
2018-03-17T02:06:58.400Z,6.18
2018-03-17T02:09:27.358Z,6.55
2018-03-17T02:11:56.445Z,6.18
2018-03-17T02:14:25.459Z,9.35
2018-03-17T02:16:54.492Z,3.95
2018-03-17T02:19:23.576Z,8.35
2018-03-17T02:21:52.573Z,5.80
2018-03-17T02:24:21.574Z,6.40
2018-03-17T02:26:50.945Z,7.62
2018-03-17T02:29:19.885Z,5.03
2018-03-17T02:31:49.920Z,7.28
2018-03-17T02:34:18.975Z,5.25
2018-03-17T02:36:48.019Z,3.70
2018-03-17T02:39:17.112Z,6.05
2018-03-17T02:41:46.180Z,5.25
2018-03-17T02:44:15.138Z,7.10
2018-03-17T02:46:44.178Z,5.12
2018-03-17T02:49:13.173Z,9.93
2018-03-17T02:51:42.278Z,7.35
2018-03-17T02:54:11.453Z,7.20
2018-03-17T02:56:40.447Z,7.40
2018-03-17T02:59:09.387Z,5.60
2018-03-17T03:01:38.370Z,7.10
2018-03-17T03:04:07.664Z,14.68
2018-03-17T03:06:36.743Z,17.27
2018-03-17T03:09:06.897Z,13.55
2018-03-17T03:11:35.851Z,16.92
2018-03-17T03:14:04.909Z,13.70
2018-03-17T03:16:33.951Z,14.87
2018-03-17T03:19:02.889Z,14.93
2018-03-17T03:21:31.907Z,13.27
2018-03-17T03:24:00.952Z,13.23
2018-03-17T03:26:29.939Z,14.18
2018-03-17T03:29:00.014Z,18.45
2018-03-17T03:31:28.947Z,10.50
2018-03-17T03:33:57.921Z,10.55
2018-03-17T03:36:26.941Z,14.10
2018-03-17T03:38:55.922Z,17.30
2018-03-17T03:41:24.870Z,18.37
2018-03-17T03:43:53.968Z,22.52
2018-03-17T03:46:23.058Z,19.30
2018-03-17T03:51:44.955Z,18.90
2018-03-17T03:54:14.180Z,21.00
2018-03-17T03:56:43.297Z,22.37
2018-03-17T03:59:12.452Z,21.15
2018-03-17T04:01:41.499Z,19.25
2018-03-17T04:04:10.657Z,21.83
2018-03-17T04:06:39.743Z,18.05
2018-03-17T04:09:08.825Z,23.45
2018-03-17T04:11:37.904Z,24.33
2018-03-17T04:14:06.926Z,24.50
2018-03-17T04:16:35.969Z,23.38
2018-03-17T04:19:05.047Z,21.25
2018-03-17T04:21:34.816Z,19.33
2018-03-17T04:24:03.921Z,25.35
2018-03-17T04:26:32.940Z,24.80
2018-03-17T04:29:02.321Z,28.40
2018-03-17T04:31:31.397Z,25.30
2018-03-17T04:34:00.493Z,23.50
2018-03-17T04:36:29.540Z,26.98
2018-03-17T04:38:58.726Z,27.65
2018-03-17T04:41:27.778Z,27.05
2018-03-17T04:43:56.825Z,24.15
2018-03-17T04:46:25.864Z,26.80
2018-03-17T04:48:54.963Z,24.17
2018-03-17T04:51:24.065Z,25.73
2018-03-17T04:53:53.187Z,26.95
2018-03-17T04:56:22.280Z,33.17
2018-03-17T04:58:51.351Z,24.15
2018-03-17T05:01:20.442Z,29.80
2018-03-17T05:03:49.636Z,27.48
2018-03-17T05:06:19.695Z,24.85
2018-03-17T05:08:48.755Z,26.67
2018-03-17T05:11:17.778Z,33.35
2018-03-17T05:13:46.887Z,35.75
2018-03-17T05:16:16.052Z,32.33
2018-03-17T05:18:45.154Z,27.67
2018-03-17T05:21:14.409Z,28.62
2018-03-17T05:23:43.555Z,30.75
2018-03-17T05:26:12.753Z,31.35
2018-03-17T05:28:41.844Z,28.25
2018-03-17T05:31:11.016Z,32.45
2018-03-17T05:33:40.068Z,34.55
2018-03-17T05:36:09.113Z,32.08
2018-03-17T05:38:38.271Z,30.15
2018-03-17T05:41:07.297Z,29.40
2018-03-17T05:43:36.345Z,32.08
2018-03-17T05:46:05.508Z,34.13
2018-03-17T05:48:35.331Z,33.20
2018-03-17T05:51:04.628Z,33.28
2018-03-17T05:53:33.925Z,33.67
2018-03-17T05:56:03.253Z,34.28
2018-03-17T05:58:32.368Z,26.25
2018-03-17T06:01:01.524Z,27.15
2018-03-17T06:03:30.649Z,27.45
2018-03-17T06:05:59.872Z,39.33
2018-03-17T06:08:29.164Z,29.45
2018-03-17T06:10:58.554Z,34.35
2018-03-17T06:13:28.666Z,35.10
2018-03-17T06:16:13.691Z,35.80
2018-03-17T06:18:42.819Z,37.92
2018-03-17T06:21:11.968Z,38.38
2018-03-17T06:23:41.051Z,30.90
2018-03-17T06:26:11.058Z,26.20
2018-03-17T06:28:40.259Z,38.35
2018-03-17T06:31:09.283Z,31.58
2018-03-17T06:33:38.446Z,32.60
2018-03-17T06:36:08.484Z,38.83
2018-03-17T06:38:37.731Z,40.67
2018-03-17T06:41:06.891Z,32.72
2018-03-17T06:43:37.051Z,35.17
2018-03-17T06:46:06.083Z,35.63
2018-03-17T06:48:35.091Z,30.70
2018-03-17T06:51:04.276Z,27.20
2018-03-17T06:53:33.388Z,31.77
2018-03-17T06:56:02.488Z,30.30
2018-03-17T06:58:31.583Z,27.42
2018-03-17T07:01:00.648Z,29.73
2018-03-17T07:03:29.830Z,36.83
2018-03-17T07:05:58.860Z,34.60
2018-03-17T07:08:27.955Z,35.92
2018-03-17T07:10:57.308Z,35.28
2018-03-17T07:13:26.463Z,36.03
2018-03-17T07:15:55.669Z,36.00
2018-03-17T07:18:24.751Z,32.28
2018-03-17T07:20:54.053Z,30.05
2018-03-17T07:23:23.158Z,34.65
2018-03-17T07:25:52.234Z,34.58
2018-03-17T07:28:21.407Z,29.20
2018-03-17T07:30:50.642Z,33.45
2018-03-17T07:33:19.812Z,32.83
2018-03-17T07:35:48.936Z,34.05
2018-03-17T07:38:18.228Z,33.53
2018-03-17T07:40:47.438Z,27.25
2018-03-17T07:43:16.852Z,33.30
2018-03-17T07:45:45.933Z,37.45
2018-03-17T07:48:15.029Z,42.30
2018-03-17T07:50:44.038Z,35.70
2018-03-17T07:53:13.238Z,38.47
2018-03-17T07:55:42.360Z,33.53
2018-03-17T07:58:11.419Z,39.25
2018-03-17T08:00:40.531Z,35.30
2018-03-17T08:03:09.629Z,36.95
2018-03-17T08:05:38.806Z,32.67
2018-03-17T08:08:07.994Z,41.72
2018-03-17T08:10:37.740Z,39.10
2018-03-17T08:13:07.194Z,29.15
2018-03-17T08:15:36.215Z,32.55
2018-03-17T08:18:05.375Z,30.52
2018-03-17T08:20:34.598Z,31.45
2018-03-17T08:23:03.751Z,28.80
2018-03-17T08:25:33.955Z,30.20
2018-03-17T08:28:03.053Z,34.95
2018-03-17T08:30:32.219Z,38.42
2018-03-17T08:33:01.268Z,34.28
2018-03-17T08:35:30.384Z,33.45
2018-03-17T08:37:59.597Z,36.63
2018-03-17T08:40:28.644Z,31.42
2018-03-17T08:42:57.792Z,32.85
2018-03-17T08:45:27.319Z,31.85
2018-03-17T08:47:56.588Z,29.98
2018-03-17T08:50:25.639Z,33.05
2018-03-17T08:52:56.069Z,41.37
2018-03-17T08:55:25.149Z,33.67
2018-03-17T08:57:54.278Z,30.60
2018-03-17T09:00:23.543Z,32.13
2018-03-17T09:02:52.951Z,37.65
2018-03-17T09:05:22.126Z,27.98
2018-03-17T09:07:54.860Z,28.87
2018-03-17T09:10:24.192Z,25.85
2018-03-17T09:12:53.501Z,32.88
2018-03-17T09:15:24.945Z,35.95
2018-03-17T09:17:54.093Z,36.08
2018-03-17T09:20:23.689Z,30.62
2018-03-17T09:22:52.835Z,36.10
2018-03-17T09:25:22.388Z,31.67
2018-03-17T09:27:51.403Z,35.78
2018-03-17T09:30:20.652Z,34.05
2018-03-17T09:32:51.375Z,33.08
2018-03-17T09:35:20.408Z,37.92
2018-03-17T09:37:49.461Z,34.85
2018-03-17T09:40:18.508Z,36.05
2018-03-17T09:42:47.809Z,34.03
2018-03-17T09:45:16.921Z,37.95
2018-03-17T09:47:46.020Z,34.17
2018-03-17T09:50:15.112Z,34.70
2018-03-17T09:52:44.443Z,36.05
2018-03-17T09:55:13.540Z,33.22
2018-03-17T09:57:42.690Z,27.35
2018-03-17T10:00:11.944Z,36.20
2018-03-17T10:02:41.589Z,44.85
2018-03-17T10:05:10.659Z,34.97
2018-03-17T10:07:39.705Z,43.00
2018-03-17T10:10:08.765Z,34.33
2018-03-17T10:12:43.779Z,35.05
2018-03-17T10:15:12.901Z,36.38
2018-03-17T10:17:41.951Z,33.22
2018-03-17T10:20:10.981Z,38.70
2018-03-17T10:22:39.988Z,40.58
2018-03-17T10:25:09.497Z,35.10
2018-03-17T10:27:38.732Z,33.47
2018-03-17T10:30:07.850Z,37.88
2018-03-17T10:32:36.967Z,39.53
2018-03-17T10:35:06.138Z,30.23
2018-03-17T10:37:35.226Z,33.22
2018-03-17T10:40:05.693Z,36.10
2018-03-17T10:42:34.772Z,38.17
2018-03-17T10:45:04.018Z,39.25
2018-03-17T10:47:33.182Z,33.55
2018-03-17T10:50:02.737Z,32.83
2018-03-17T10:52:31.808Z,39.50
2018-03-17T10:55:00.982Z,40.15
2018-03-17T10:57:30.219Z,38.90
2018-03-17T11:00:00.200Z,37.30
2018-03-17T11:05:23.951Z,35.67
2018-03-17T11:16:31.063Z,35.85
2018-03-17T11:19:00.165Z,34.45
2018-03-17T11:21:30.839Z,33.87
2018-03-17T11:23:59.989Z,35.58
2018-03-17T11:26:29.053Z,31.55
2018-03-17T11:29:01.726Z,33.43
2018-03-17T11:31:30.857Z,27.58
2018-03-17T11:33:59.981Z,35.25
2018-03-17T11:36:29.020Z,34.38
2018-03-17T11:38:58.598Z,34.25
2018-03-17T11:41:27.785Z,35.28
2018-03-17T11:43:59.312Z,37.92
2018-03-17T11:46:28.442Z,30.20
2018-03-17T12:00:36.830Z,30.12
2018-03-17T12:03:05.914Z,26.83
2018-03-17T12:05:35.029Z,30.27
2018-03-17T12:08:04.552Z,33.80
2018-03-17T12:10:33.669Z,30.83
2018-03-17T12:13:02.742Z,30.10
2018-03-17T12:15:31.879Z,29.60
2018-03-17T12:18:01.426Z,30.65
2018-03-17T12:20:49.971Z,28.87
2018-03-17T12:23:22.031Z,31.02
2018-03-17T12:25:51.242Z,26.83
2018-03-17T12:28:20.457Z,27.73
2018-03-17T12:30:49.888Z,34.15
2018-03-17T12:33:18.932Z,33.03
2018-03-17T12:35:48.061Z,30.80
2018-03-17T12:38:17.507Z,29.37
2018-03-17T12:40:46.531Z,28.65
2018-03-17T12:43:15.578Z,27.67
2018-03-17T12:45:46.937Z,28.75
2018-03-17T12:48:16.038Z,31.73
2018-03-17T12:50:45.154Z,25.62
2018-03-17T12:53:14.705Z,27.52
2018-03-17T12:55:43.868Z,22.98
2018-03-17T12:58:13.065Z,24.70
2018-03-17T13:00:42.537Z,25.27
2018-03-17T13:03:11.620Z,27.58
2018-03-17T13:05:40.713Z,28.20
2018-03-17T13:08:11.109Z,28.00
2018-03-17T13:10:40.190Z,30.05
2018-03-17T13:13:09.278Z,29.58
2018-03-17T13:15:38.586Z,26.10
2018-03-17T13:18:08.586Z,29.23
2018-03-17T13:20:37.653Z,30.25
2018-03-17T13:23:15.423Z,22.75
2018-03-17T13:25:44.528Z,24.58
2018-03-17T13:28:23.570Z,22.35
2018-03-17T13:30:52.700Z,29.52
2018-03-17T13:33:21.910Z,28.77
2018-03-17T13:38:03.133Z,31.23
2018-03-17T13:40:34.193Z,30.77
2018-03-17T13:43:03.371Z,28.92
2018-03-17T13:45:32.456Z,26.25
2018-03-17T13:48:02.865Z,25.40
2018-03-17T13:50:33.415Z,27.27
2018-03-17T13:53:02.685Z,23.70
2018-03-17T13:55:31.907Z,25.80
2018-03-17T13:58:01.218Z,23.35
2018-03-17T14:00:30.493Z,24.27
2018-03-17T14:02:59.781Z,28.27
2018-03-17T14:05:28.923Z,29.35
2018-03-17T14:07:58.495Z,26.55
2018-03-17T14:10:27.670Z,26.80
2018-03-17T14:12:57.208Z,28.17
2018-03-17T14:15:26.941Z,28.30
2018-03-17T14:17:56.109Z,28.07
2018-03-17T14:20:25.294Z,27.62
2018-03-17T14:22:54.333Z,29.45
2018-03-17T14:25:23.513Z,29.73
2018-03-17T14:27:54.315Z,31.58
2018-03-17T14:30:24.601Z,23.30
2018-03-17T14:32:54.920Z,25.12
2018-03-17T14:35:28.097Z,29.87
2018-03-17T14:37:57.581Z,29.20
2018-03-17T14:40:27.604Z,31.67
2018-03-17T14:42:56.998Z,28.47
2018-03-17T14:45:26.272Z,30.12
2018-03-17T14:47:55.757Z,31.60
2018-03-17T14:50:24.880Z,31.55
2018-03-17T14:52:54.525Z,31.30
2018-03-17T14:55:23.696Z,29.08
2018-03-17T14:57:52.810Z,33.92
2018-03-17T15:00:21.995Z,30.33
2018-03-17T15:02:51.408Z,25.40
2018-03-17T15:05:20.514Z,29.48
2018-03-17T15:08:01.094Z,29.43
2018-03-17T15:10:31.794Z,31.30
2018-03-17T15:13:01.182Z,31.30
2018-03-17T15:15:31.018Z,28.43
2018-03-17T15:18:02.079Z,29.00
2018-03-17T15:20:31.615Z,30.20
2018-03-17T15:23:01.307Z,31.67
2018-03-17T15:25:31.673Z,29.42
2018-03-17T15:28:00.737Z,32.47
2018-03-17T15:30:29.897Z,29.33
2018-03-17T15:32:59.400Z,29.30
2018-03-17T15:35:28.531Z,28.35
2018-03-17T15:37:57.557Z,32.60
2018-03-17T15:40:26.887Z,29.87
2018-03-17T15:42:56.398Z,31.23
2018-03-17T15:45:25.896Z,28.77
2018-03-17T15:47:55.088Z,31.23
2018-03-17T15:50:24.234Z,32.30
2018-03-17T15:52:53.640Z,27.77
2018-03-17T15:55:24.435Z,32.47
2018-03-17T15:57:53.630Z,32.33
2018-03-17T16:00:24.667Z,31.80
2018-03-17T16:02:54.506Z,34.38
2018-03-17T16:05:24.134Z,36.53
2018-03-17T16:07:53.811Z,36.23
2018-03-17T16:10:22.926Z,33.60
2018-03-17T16:12:52.088Z,32.03
2018-03-17T16:15:21.358Z,30.50
2018-03-17T16:17:51.797Z,27.87
2018-03-17T16:20:20.898Z,29.43
2018-03-17T16:22:52.593Z,26.27
2018-03-17T16:25:21.761Z,28.00
2018-03-17T16:27:51.039Z,26.60
2018-03-17T16:30:20.208Z,29.80
2018-03-17T16:32:49.821Z,31.97
2018-03-17T16:35:19.268Z,27.63
2018-03-17T16:37:49.387Z,27.40
2018-03-17T16:40:18.566Z,25.70
2018-03-17T16:42:48.263Z,29.57
2018-03-17T16:45:17.336Z,28.67
2018-03-17T16:47:46.530Z,28.07
2018-03-17T16:50:16.907Z,27.50
2018-03-17T16:52:45.965Z,29.70
2018-03-17T16:55:15.756Z,23.60
2018-03-17T16:57:46.107Z,23.17
2018-03-17T17:00:15.389Z,22.17
2018-03-17T17:02:45.512Z,25.17
2018-03-17T17:05:15.154Z,27.20
2018-03-17T17:07:44.171Z,24.35
2018-03-17T17:10:13.266Z,29.00
2018-03-17T17:12:47.813Z,21.83
2018-03-17T17:15:17.024Z,25.07
2018-03-17T17:17:46.410Z,22.80
2018-03-17T17:20:15.843Z,24.63
2018-03-17T17:22:45.484Z,23.17
2018-03-17T17:25:14.637Z,24.47
2018-03-17T17:27:46.162Z,28.02
2018-03-17T17:30:15.452Z,26.23
2018-03-17T17:32:44.585Z,23.13
2018-03-17T17:35:15.068Z,22.67
2018-03-17T17:37:44.162Z,22.62
2018-03-17T17:40:13.254Z,26.60
2018-03-17T17:42:42.453Z,22.67
2018-03-17T17:45:11.579Z,24.43
2018-03-17T17:47:41.569Z,23.63
2018-03-17T17:50:13.370Z,24.30
2018-03-17T17:52:42.546Z,24.43
2018-03-17T17:55:11.768Z,26.20
2018-03-17T17:57:41.121Z,27.00
2018-03-17T18:00:10.293Z,25.67
2018-03-17T18:02:39.382Z,20.10
2018-03-17T18:05:08.997Z,25.80
2018-03-17T18:07:39.247Z,20.47
2018-03-17T18:10:08.413Z,25.50
2018-03-17T18:12:39.066Z,25.03
2018-03-17T18:15:08.357Z,24.20
2018-03-17T18:17:38.050Z,22.60
2018-03-17T18:20:12.679Z,23.23
2018-03-17T18:22:42.306Z,22.23
2018-03-17T18:25:12.060Z,19.43
2018-03-17T18:27:44.372Z,21.37
2018-03-17T18:30:13.607Z,25.73
2018-03-17T18:32:42.967Z,22.77
2018-03-17T18:35:17.636Z,22.65
2018-03-17T18:37:46.918Z,21.90
2018-03-17T18:40:16.487Z,21.17
2018-03-17T18:42:52.004Z,22.77
2018-03-17T18:45:21.255Z,23.97
2018-03-17T18:53:50.607Z,20.43
2018-03-17T18:56:19.706Z,24.10
2018-03-17T18:58:52.072Z,22.80
2018-03-17T19:01:21.763Z,22.37
2018-03-17T19:03:50.981Z,23.30
2018-03-17T19:06:20.530Z,23.17
2018-03-17T19:08:51.763Z,22.63
2018-03-17T19:11:20.826Z,23.27
2018-03-17T19:13:51.259Z,22.73
2018-03-17T19:16:20.857Z,26.83
2018-03-17T19:18:55.854Z,26.30
2018-03-17T19:21:24.970Z,27.73
2018-03-17T19:23:55.340Z,23.73
2018-03-17T19:26:24.675Z,28.00
2018-03-17T19:28:55.196Z,24.23
2018-03-17T19:31:24.397Z,27.53
2018-03-17T19:33:53.815Z,26.60
2018-03-17T19:36:23.071Z,25.27
2018-03-17T19:38:52.439Z,23.07
2018-03-17T19:41:22.141Z,27.40
2018-03-17T19:43:51.438Z,27.03
2018-03-17T19:46:21.082Z,28.07
2018-03-17T19:48:50.495Z,28.23
2018-03-17T19:52:35.228Z,32.30
2018-03-17T19:55:04.679Z,32.43
2018-03-17T19:57:34.939Z,29.17
2018-03-17T20:00:04.203Z,29.87
2018-03-17T20:02:36.247Z,26.63
2018-03-17T20:05:05.395Z,27.73
2018-03-17T20:07:34.620Z,31.53
2018-03-17T20:10:03.895Z,28.67
2018-03-17T20:12:33.040Z,33.07
2018-03-17T20:15:04.957Z,31.97
2018-03-17T20:17:36.659Z,31.03
2018-03-17T20:20:05.999Z,30.93
2018-03-17T20:22:35.518Z,27.93
2018-03-17T20:25:05.432Z,29.93
2018-03-17T20:27:35.447Z,33.17
2018-03-17T20:30:05.158Z,31.40
2018-03-17T20:32:34.820Z,33.03
2018-03-17T20:35:04.133Z,30.43
2018-03-17T20:37:33.539Z,31.77
2018-03-17T20:40:03.032Z,32.00
2018-03-17T20:42:32.160Z,27.97
2018-03-17T20:45:02.254Z,29.27
2018-03-17T20:47:31.484Z,32.47
2018-03-17T20:50:01.561Z,34.97
2018-03-17T20:52:30.756Z,32.73
2018-03-17T20:55:01.746Z,31.97
2018-03-17T20:57:30.895Z,27.67
2018-03-17T21:00:01.123Z,36.53
2018-03-17T21:02:34.920Z,32.60
2018-03-17T21:05:04.394Z,33.07
2018-03-17T21:07:33.787Z,30.50
2018-03-17T21:10:03.180Z,28.60
2018-03-17T21:12:32.233Z,32.80
2018-03-17T21:15:01.443Z,34.90
2018-03-17T21:17:31.164Z,35.03
2018-03-17T21:20:01.458Z,39.57
2018-03-17T21:22:30.764Z,39.17
2018-03-17T21:25:01.697Z,37.93
2018-03-17T21:27:30.784Z,41.63
2018-03-17T21:29:59.979Z,38.90
2018-03-17T21:32:29.505Z,33.60
2018-03-17T21:34:59.673Z,41.53
2018-03-17T21:37:31.021Z,38.07
2018-03-17T21:40:01.036Z,37.17
2018-03-17T21:42:30.364Z,38.20
2018-03-17T21:44:59.556Z,37.13
2018-03-17T21:47:28.789Z,37.23
2018-03-17T21:49:58.122Z,42.37
2018-03-17T21:52:27.297Z,44.47
2018-03-17T21:54:56.628Z,42.40
2018-03-17T21:57:26.515Z,41.63
2018-03-17T21:59:55.996Z,41.33
2018-03-17T22:02:26.222Z,43.17
2018-03-17T22:04:55.298Z,43.17
2018-03-17T22:07:24.369Z,41.13
2018-03-17T22:09:53.553Z,44.17
2018-03-17T22:12:23.180Z,38.03
2018-03-17T22:14:52.261Z,43.03
2018-03-17T22:17:21.682Z,46.20
2018-03-17T22:19:54.227Z,37.43
2018-03-17T22:22:23.425Z,41.23
2018-03-17T22:24:52.493Z,41.67
2018-03-17T22:27:21.752Z,39.17
2018-03-17T22:29:50.844Z,42.97
2018-03-17T22:32:19.870Z,42.00
2018-03-17T22:34:50.436Z,42.43
2018-03-17T22:37:25.966Z,43.90
2018-03-17T22:39:55.047Z,40.70
2018-03-17T22:42:24.262Z,38.97
2018-03-17T22:44:53.355Z,41.47
2018-03-17T22:47:22.432Z,33.00
2018-03-17T22:49:51.637Z,38.07
2018-03-17T22:52:20.854Z,35.33
2018-03-17T22:54:49.992Z,33.47
2018-03-17T22:57:20.550Z,35.67
2018-03-17T22:59:49.637Z,30.63
2018-03-17T23:02:19.588Z,38.10
2018-03-17T23:04:49.051Z,39.73
2018-03-17T23:07:18.189Z,35.00
2018-03-17T23:09:47.640Z,36.17
2018-03-17T23:12:17.612Z,34.83
2018-03-17T23:14:46.917Z,32.97
2018-03-17T23:17:16.403Z,33.50
2018-03-17T23:19:45.925Z,34.43
2018-03-17T23:22:14.992Z,31.33
2018-03-17T23:24:44.258Z,32.70
2018-03-17T23:27:16.661Z,29.97
2018-03-17T23:29:45.870Z,31.93
2018-03-17T23:32:16.219Z,30.53
2018-03-17T23:34:45.804Z,36.47
2018-03-17T23:37:15.043Z,33.77
2018-03-17T23:39:45.722Z,39.83
2018-03-17T23:42:15.118Z,32.67
2018-03-17T23:44:46.048Z,31.20
2018-03-17T23:47:16.060Z,35.77
2018-03-17T23:49:45.250Z,39.87
2018-03-17T23:52:14.631Z,28.67
2018-03-17T23:54:45.734Z,30.20
2018-03-17T23:57:14.977Z,33.33
2018-03-17T23:59:46.685Z,32.57
